sensor_id;sensor_type;location;lat;lon;timestamp;temperature;humidity
20233;DHT22;37438;55.674;13.074;2023-07-29T00:00:01;14.20;99.90
20233;DHT22;37438;55.674;13.074;2023-07-29T00:03:15;14.10;99.90
20233;DHT22;37438;55.674;13.074;2023-07-29T00:06:20;14.10;99.90
20233;DHT22;37438;55.674;13.074;2023-07-29T00:09:26;14.10;99.90
20233;DHT22;37438;55.674;13.074;2023-07-29T00:12:30;14.10;99.90
20233;DHT22;37438;55.674;13.074;2023-07-29T00:15:34;14.10;99.90
20233;DHT22;37438;55.674;13.074;2023-07-29T00:18:38;14.10;99.90
20233;DHT22;37438;55.674;13.074;2023-07-29T00:21:43;14.10;99.90
20233;DHT22;37438;55.674;13.074;2023-07-29T00:24:53;14.10;99.90
20233;DHT22;37438;55.674;13.074;2023-07-29T00:28:01;14.00;99.90
20233;DHT22;37438;55.674;13.074;2023-07-29T00:31:06;14.00;99.90
20233;DHT22;37438;55.674;13.074;2023-07-29T00:34:11;13.90;99.90
20233;DHT22;37438;55.674;13.074;2023-07-29T00:37:21;13.90;99.90
20233;DHT22;37438;55.674;13.074;2023-07-29T00:40:25;13.80;99.90
20233;DHT22;37438;55.674;13.074;2023-07-29T00:43:32;13.90;99.90
20233;DHT22;37438;55.674;13.074;2023-07-29T00:46:39;13.90;99.90
20233;DHT22;37438;55.674;13.074;2023-07-29T00:49:44;13.80;99.90
20233;DHT22;37438;55.674;13.074;2023-07-29T00:52:49;13.80;99.90
20233;DHT22;37438;55.674;13.074;2023-07-29T00:55:53;13.80;99.90
20233;DHT22;37438;55.674;13.074;2023-07-29T00:58:58;13.80;99.90
20233;DHT22;37438;55.674;13.074;2023-07-29T01:02:05;13.80;99.90
20233;DHT22;37438;55.674;13.074;2023-07-29T01:05:15;13.80;99.90
20233;DHT22;37438;55.674;13.074;2023-07-29T01:08:21;13.80;99.90
20233;DHT22;37438;55.674;13.074;2023-07-29T01:17:46;13.80;99.90
20233;DHT22;37438;55.674;13.074;2023-07-29T01:20:53;13.80;99.90
20233;DHT22;37438;55.674;13.074;2023-07-29T01:23:58;13.80;99.90
20233;DHT22;37438;55.674;13.074;2023-07-29T01:27:03;13.70;99.90
20233;DHT22;37438;55.674;13.074;2023-07-29T01:30:09;13.80;99.90
20233;DHT22;37438;55.674;13.074;2023-07-29T01:33:18;13.80;99.90
20233;DHT22;37438;55.674;13.074;2023-07-29T01:36:22;13.70;99.90
20233;DHT22;37438;55.674;13.074;2023-07-29T01:39:30;13.80;99.90
20233;DHT22;37438;55.674;13.074;2023-07-29T01:42:36;13.80;99.90
20233;DHT22;37438;55.674;13.074;2023-07-29T01:45:41;13.70;99.90
20233;DHT22;37438;55.674;13.074;2023-07-29T01:48:45;13.70;99.90
20233;DHT22;37438;55.674;13.074;2023-07-29T01:51:50;13.60;99.90
20233;DHT22;37438;55.674;13.074;2023-07-29T01:54:55;13.60;99.90
20233;DHT22;37438;55.674;13.074;2023-07-29T01:57:59;13.70;99.90
20233;DHT22;37438;55.674;13.074;2023-07-29T02:01:04;13.70;99.90
20233;DHT22;37438;55.674;13.074;2023-07-29T02:04:09;13.70;99.90
20233;DHT22;37438;55.674;13.074;2023-07-29T02:07:13;13.60;99.90
20233;DHT22;37438;55.674;13.074;2023-07-29T02:10:18;13.70;99.90
20233;DHT22;37438;55.674;13.074;2023-07-29T02:13:23;13.80;99.90
20233;DHT22;37438;55.674;13.074;2023-07-29T02:16:27;13.70;99.90
20233;DHT22;37438;55.674;13.074;2023-07-29T02:19:32;13.80;99.90
20233;DHT22;37438;55.674;13.074;2023-07-29T02:22:36;13.80;99.90
20233;DHT22;37438;55.674;13.074;2023-07-29T02:25:41;13.70;99.90
20233;DHT22;37438;55.674;13.074;2023-07-29T02:28:47;13.80;99.90
20233;DHT22;37438;55.674;13.074;2023-07-29T02:31:52;13.80;99.90
20233;DHT22;37438;55.674;13.074;2023-07-29T02:34:59;13.60;99.90
20233;DHT22;37438;55.674;13.074;2023-07-29T02:38:03;13.80;99.90
20233;DHT22;37438;55.674;13.074;2023-07-29T02:41:11;13.70;99.90
20233;DHT22;37438;55.674;13.074;2023-07-29T02:44:21;13.80;99.90
20233;DHT22;37438;55.674;13.074;2023-07-29T02:47:26;13.80;99.90
20233;DHT22;37438;55.674;13.074;2023-07-29T02:50:33;13.70;99.90
20233;DHT22;37438;55.674;13.074;2023-07-29T02:53:38;13.80;99.90
20233;DHT22;37438;55.674;13.074;2023-07-29T02:56:42;13.80;99.90
20233;DHT22;37438;55.674;13.074;2023-07-29T02:59:47;13.80;99.90
20233;DHT22;37438;55.674;13.074;2023-07-29T03:02:51;13.80;99.90
20233;DHT22;37438;55.674;13.074;2023-07-29T03:06:03;13.80;99.90
20233;DHT22;37438;55.674;13.074;2023-07-29T03:09:07;13.90;99.90
20233;DHT22;37438;55.674;13.074;2023-07-29T03:12:11;14.00;99.90
20233;DHT22;37438;55.674;13.074;2023-07-29T03:15:15;14.10;99.90
20233;DHT22;37438;55.674;13.074;2023-07-29T03:18:20;14.10;99.90
20233;DHT22;37438;55.674;13.074;2023-07-29T03:21:24;14.10;99.90
20233;DHT22;37438;55.674;13.074;2023-07-29T03:24:29;14.10;99.90
20233;DHT22;37438;55.674;13.074;2023-07-29T03:27:33;14.20;99.90
20233;DHT22;37438;55.674;13.074;2023-07-29T03:30:38;14.20;99.90
20233;DHT22;37438;55.674;13.074;2023-07-29T03:33:44;14.30;99.90
20233;DHT22;37438;55.674;13.074;2023-07-29T03:36:49;14.30;99.90
20233;DHT22;37438;55.674;13.074;2023-07-29T03:39:55;14.40;99.90
20233;DHT22;37438;55.674;13.074;2023-07-29T03:42:59;14.40;99.90
20233;DHT22;37438;55.674;13.074;2023-07-29T03:46:04;14.50;99.90
20233;DHT22;37438;55.674;13.074;2023-07-29T03:49:11;14.60;99.90
20233;DHT22;37438;55.674;13.074;2023-07-29T03:52:16;14.60;99.90
20233;DHT22;37438;55.674;13.074;2023-07-29T03:55:21;14.70;99.90
20233;DHT22;37438;55.674;13.074;2023-07-29T03:58:25;14.80;99.90
20233;DHT22;37438;55.674;13.074;2023-07-29T04:01:30;14.90;99.90
20233;DHT22;37438;55.674;13.074;2023-07-29T04:04:34;14.90;99.90
20233;DHT22;37438;55.674;13.074;2023-07-29T04:07:40;15.00;99.90
20233;DHT22;37438;55.674;13.074;2023-07-29T04:10:44;15.10;99.90
20233;DHT22;37438;55.674;13.074;2023-07-29T04:13:48;15.20;99.90
20233;DHT22;37438;55.674;13.074;2023-07-29T04:16:52;15.30;99.90
20233;DHT22;37438;55.674;13.074;2023-07-29T04:19:56;15.30;99.90
20233;DHT22;37438;55.674;13.074;2023-07-29T04:23:06;15.40;99.90
20233;DHT22;37438;55.674;13.074;2023-07-29T04:26:11;15.50;99.90
20233;DHT22;37438;55.674;13.074;2023-07-29T04:29:15;15.60;99.90
20233;DHT22;37438;55.674;13.074;2023-07-29T04:32:19;15.70;99.90
20233;DHT22;37438;55.674;13.074;2023-07-29T04:35:23;15.80;99.90
20233;DHT22;37438;55.674;13.074;2023-07-29T04:38:30;16.00;99.90
20233;DHT22;37438;55.674;13.074;2023-07-29T04:41:35;16.10;99.90
20233;DHT22;37438;55.674;13.074;2023-07-29T04:44:40;16.20;99.90
20233;DHT22;37438;55.674;13.074;2023-07-29T04:47:46;16.30;99.90
20233;DHT22;37438;55.674;13.074;2023-07-29T04:50:50;16.50;99.90
20233;DHT22;37438;55.674;13.074;2023-07-29T04:53:54;16.60;99.90
20233;DHT22;37438;55.674;13.074;2023-07-29T04:56:59;16.70;99.90
20233;DHT22;37438;55.674;13.074;2023-07-29T05:00:04;16.90;99.90
20233;DHT22;37438;55.674;13.074;2023-07-29T05:03:09;17.00;99.90
20233;DHT22;37438;55.674;13.074;2023-07-29T05:06:13;17.10;99.90
20233;DHT22;37438;55.674;13.074;2023-07-29T05:09:18;17.20;99.90
20233;DHT22;37438;55.674;13.074;2023-07-29T05:12:25;17.30;99.90
20233;DHT22;37438;55.674;13.074;2023-07-29T05:15:29;17.40;99.90
20233;DHT22;37438;55.674;13.074;2023-07-29T05:18:34;17.50;99.90
20233;DHT22;37438;55.674;13.074;2023-07-29T05:21:39;17.60;99.90
20233;DHT22;37438;55.674;13.074;2023-07-29T05:24:44;17.60;99.90
20233;DHT22;37438;55.674;13.074;2023-07-29T05:27:48;17.70;99.90
20233;DHT22;37438;55.674;13.074;2023-07-29T05:30:52;17.90;99.90
20233;DHT22;37438;55.674;13.074;2023-07-29T05:33:56;18.10;99.90
20233;DHT22;37438;55.674;13.074;2023-07-29T05:37:02;18.20;99.90
20233;DHT22;37438;55.674;13.074;2023-07-29T05:40:07;18.40;99.90
20233;DHT22;37438;55.674;13.074;2023-07-29T05:43:13;18.50;99.90
20233;DHT22;37438;55.674;13.074;2023-07-29T05:46:18;18.70;99.90
20233;DHT22;37438;55.674;13.074;2023-07-29T05:49:22;18.80;99.90
20233;DHT22;37438;55.674;13.074;2023-07-29T05:52:27;18.90;99.90
20233;DHT22;37438;55.674;13.074;2023-07-29T05:55:31;19.00;99.90
20233;DHT22;37438;55.674;13.074;2023-07-29T05:58:35;19.10;99.90
20233;DHT22;37438;55.674;13.074;2023-07-29T06:01:40;19.10;99.90
20233;DHT22;37438;55.674;13.074;2023-07-29T06:04:44;19.20;99.90
20233;DHT22;37438;55.674;13.074;2023-07-29T06:07:48;19.40;99.90
20233;DHT22;37438;55.674;13.074;2023-07-29T06:10:53;19.40;99.90
20233;DHT22;37438;55.674;13.074;2023-07-29T06:13:57;19.60;99.90
20233;DHT22;37438;55.674;13.074;2023-07-29T06:17:02;19.80;99.90
20233;DHT22;37438;55.674;13.074;2023-07-29T06:20:06;19.80;99.90
20233;DHT22;37438;55.674;13.074;2023-07-29T06:23:11;19.80;99.90
20233;DHT22;37438;55.674;13.074;2023-07-29T06:26:15;19.90;99.90
20233;DHT22;37438;55.674;13.074;2023-07-29T06:29:20;19.90;99.90
20233;DHT22;37438;55.674;13.074;2023-07-29T06:32:25;20.00;99.90
20233;DHT22;37438;55.674;13.074;2023-07-29T06:35:29;20.10;99.90
20233;DHT22;37438;55.674;13.074;2023-07-29T06:38:33;20.50;99.90
20233;DHT22;37438;55.674;13.074;2023-07-29T06:41:38;20.30;99.90
20233;DHT22;37438;55.674;13.074;2023-07-29T06:44:42;20.40;99.90
20233;DHT22;37438;55.674;13.074;2023-07-29T06:47:46;21.00;99.90
20233;DHT22;37438;55.674;13.074;2023-07-29T06:50:51;21.20;99.90
20233;DHT22;37438;55.674;13.074;2023-07-29T06:53:55;21.20;99.90
20233;DHT22;37438;55.674;13.074;2023-07-29T06:57:00;22.00;99.90
20233;DHT22;37438;55.674;13.074;2023-07-29T07:00:04;22.00;99.90
20233;DHT22;37438;55.674;13.074;2023-07-29T07:03:08;22.40;99.90
20233;DHT22;37438;55.674;13.074;2023-07-29T07:06:13;22.60;99.90
20233;DHT22;37438;55.674;13.074;2023-07-29T07:09:17;22.70;99.90
20233;DHT22;37438;55.674;13.074;2023-07-29T07:12:22;22.60;99.90
20233;DHT22;37438;55.674;13.074;2023-07-29T07:15:26;22.40;99.90
20233;DHT22;37438;55.674;13.074;2023-07-29T07:18:30;22.50;99.90
20233;DHT22;37438;55.674;13.074;2023-07-29T07:21:34;22.70;99.90
20233;DHT22;37438;55.674;13.074;2023-07-29T07:24:38;22.60;99.90
20233;DHT22;37438;55.674;13.074;2023-07-29T07:27:42;22.30;99.90
20233;DHT22;37438;55.674;13.074;2023-07-29T07:30:47;22.00;99.90
20233;DHT22;37438;55.674;13.074;2023-07-29T07:33:51;22.00;99.90
20233;DHT22;37438;55.674;13.074;2023-07-29T07:36:55;21.90;99.90
20233;DHT22;37438;55.674;13.074;2023-07-29T07:39:59;22.50;99.90
20233;DHT22;37438;55.674;13.074;2023-07-29T07:43:03;22.40;99.90
20233;DHT22;37438;55.674;13.074;2023-07-29T07:46:07;22.40;99.90
20233;DHT22;37438;55.674;13.074;2023-07-29T07:49:12;22.20;99.90
20233;DHT22;37438;55.674;13.074;2023-07-29T07:52:17;22.20;99.90
20233;DHT22;37438;55.674;13.074;2023-07-29T07:55:21;22.10;99.90
20233;DHT22;37438;55.674;13.074;2023-07-29T07:58:25;22.40;99.90
20233;DHT22;37438;55.674;13.074;2023-07-29T08:01:36;22.80;99.90
20233;DHT22;37438;55.674;13.074;2023-07-29T08:04:41;23.00;99.90
20233;DHT22;37438;55.674;13.074;2023-07-29T08:07:45;23.70;99.90
20233;DHT22;37438;55.674;13.074;2023-07-29T08:10:49;23.80;99.90
20233;DHT22;37438;55.674;13.074;2023-07-29T08:13:53;24.30;99.90
20233;DHT22;37438;55.674;13.074;2023-07-29T08:16:58;24.60;1.00
20233;DHT22;37438;55.674;13.074;2023-07-29T08:20:02;23.60;1.00
20233;DHT22;37438;55.674;13.074;2023-07-29T08:23:07;23.00;99.90
20233;DHT22;37438;55.674;13.074;2023-07-29T08:26:11;23.20;99.90
20233;DHT22;37438;55.674;13.074;2023-07-29T08:29:15;23.10;99.90
20233;DHT22;37438;55.674;13.074;2023-07-29T08:32:20;23.20;99.90
20233;DHT22;37438;55.674;13.074;2023-07-29T08:35:24;23.30;99.90
20233;DHT22;37438;55.674;13.074;2023-07-29T08:38:29;23.20;99.90
20233;DHT22;37438;55.674;13.074;2023-07-29T08:45:14;23.10;99.90
20233;DHT22;37438;55.674;13.074;2023-07-29T08:48:23;23.20;99.90
20233;DHT22;37438;55.674;13.074;2023-07-29T08:51:33;22.90;99.90
20233;DHT22;37438;55.674;13.074;2023-07-29T08:54:38;23.00;99.90
20233;DHT22;37438;55.674;13.074;2023-07-29T08:57:43;22.30;99.90
20233;DHT22;37438;55.674;13.074;2023-07-29T09:00:47;22.40;99.90
20233;DHT22;37438;55.674;13.074;2023-07-29T09:03:52;22.20;99.90
20233;DHT22;37438;55.674;13.074;2023-07-29T09:06:56;22.20;99.90
20233;DHT22;37438;55.674;13.074;2023-07-29T09:10:02;22.30;99.90
20233;DHT22;37438;55.674;13.074;2023-07-29T09:13:06;22.40;99.90
20233;DHT22;37438;55.674;13.074;2023-07-29T09:16:11;22.00;99.90
20233;DHT22;37438;55.674;13.074;2023-07-29T09:19:15;22.10;99.90
20233;DHT22;37438;55.674;13.074;2023-07-29T09:22:20;22.10;99.90
20233;DHT22;37438;55.674;13.074;2023-07-29T09:25:25;22.20;99.90
20233;DHT22;37438;55.674;13.074;2023-07-29T09:28:33;21.80;99.90
20233;DHT22;37438;55.674;13.074;2023-07-29T09:31:38;21.90;99.90
20233;DHT22;37438;55.674;13.074;2023-07-29T09:34:42;22.20;99.90
20233;DHT22;37438;55.674;13.074;2023-07-29T09:37:46;22.60;99.90
20233;DHT22;37438;55.674;13.074;2023-07-29T09:40:54;22.70;99.90
20233;DHT22;37438;55.674;13.074;2023-07-29T09:44:03;23.20;99.90
20233;DHT22;37438;55.674;13.074;2023-07-29T09:47:07;23.20;99.90
20233;DHT22;37438;55.674;13.074;2023-07-29T09:50:11;23.20;99.90
20233;DHT22;37438;55.674;13.074;2023-07-29T09:53:16;23.30;99.90
20233;DHT22;37438;55.674;13.074;2023-07-29T09:56:25;23.00;99.90
20233;DHT22;37438;55.674;13.074;2023-07-29T09:59:33;22.90;99.90
20233;DHT22;37438;55.674;13.074;2023-07-29T10:02:39;22.70;99.90
20233;DHT22;37438;55.674;13.074;2023-07-29T10:05:44;22.90;99.90
20233;DHT22;37438;55.674;13.074;2023-07-29T10:08:49;23.20;99.90
20233;DHT22;37438;55.674;13.074;2023-07-29T10:11:54;23.30;99.90
20233;DHT22;37438;55.674;13.074;2023-07-29T10:14:59;23.30;99.90
20233;DHT22;37438;55.674;13.074;2023-07-29T10:18:04;23.50;99.90
20233;DHT22;37438;55.674;13.074;2023-07-29T10:21:08;23.50;99.90
20233;DHT22;37438;55.674;13.074;2023-07-29T10:24:15;23.70;99.90
20233;DHT22;37438;55.674;13.074;2023-07-29T10:27:22;23.30;99.90
20233;DHT22;37438;55.674;13.074;2023-07-29T10:30:28;23.10;99.90
20233;DHT22;37438;55.674;13.074;2023-07-29T10:33:32;22.80;99.90
20233;DHT22;37438;55.674;13.074;2023-07-29T10:36:38;22.60;99.90
20233;DHT22;37438;55.674;13.074;2023-07-29T10:39:51;22.60;99.90
20233;DHT22;37438;55.674;13.074;2023-07-29T10:43:00;22.60;99.90
20233;DHT22;37438;55.674;13.074;2023-07-29T10:49:23;22.80;99.90
20233;DHT22;37438;55.674;13.074;2023-07-29T10:52:39;22.80;99.90
20233;DHT22;37438;55.674;13.074;2023-07-29T10:55:44;22.60;99.90
20233;DHT22;37438;55.674;13.074;2023-07-29T10:58:48;22.60;99.90
20233;DHT22;37438;55.674;13.074;2023-07-29T11:01:59;22.50;99.90
20233;DHT22;37438;55.674;13.074;2023-07-29T11:05:07;22.50;99.90
20233;DHT22;37438;55.674;13.074;2023-07-29T11:08:18;22.20;99.90
20233;DHT22;37438;55.674;13.074;2023-07-29T11:11:23;22.20;99.90
20233;DHT22;37438;55.674;13.074;2023-07-29T11:14:27;22.10;99.90
20233;DHT22;37438;55.674;13.074;2023-07-29T11:17:32;22.20;99.90
20233;DHT22;37438;55.674;13.074;2023-07-29T11:20:37;21.90;99.90
20233;DHT22;37438;55.674;13.074;2023-07-29T11:23:41;21.90;99.90
20233;DHT22;37438;55.674;13.074;2023-07-29T11:26:48;21.90;99.90
20233;DHT22;37438;55.674;13.074;2023-07-29T11:29:56;21.70;99.90
20233;DHT22;37438;55.674;13.074;2023-07-29T11:33:01;21.70;99.90
20233;DHT22;37438;55.674;13.074;2023-07-29T11:36:05;22.00;99.90
20233;DHT22;37438;55.674;13.074;2023-07-29T11:39:10;22.00;99.90
20233;DHT22;37438;55.674;13.074;2023-07-29T11:42:15;22.10;99.90
20233;DHT22;37438;55.674;13.074;2023-07-29T11:45:19;22.50;99.90
20233;DHT22;37438;55.674;13.074;2023-07-29T11:48:28;22.30;99.90
20233;DHT22;37438;55.674;13.074;2023-07-29T11:51:32;22.40;99.90
20233;DHT22;37438;55.674;13.074;2023-07-29T11:54:36;22.20;99.90
20233;DHT22;37438;55.674;13.074;2023-07-29T11:57:41;22.30;99.90
20233;DHT22;37438;55.674;13.074;2023-07-29T12:00:46;22.10;99.90
20233;DHT22;37438;55.674;13.074;2023-07-29T12:03:50;21.80;99.90
20233;DHT22;37438;55.674;13.074;2023-07-29T12:06:55;21.80;99.90
20233;DHT22;37438;55.674;13.074;2023-07-29T12:10:00;21.70;99.90
20233;DHT22;37438;55.674;13.074;2023-07-29T12:13:04;21.50;99.90
20233;DHT22;37438;55.674;13.074;2023-07-29T12:16:15;21.50;99.90
20233;DHT22;37438;55.674;13.074;2023-07-29T12:19:20;21.40;99.90
20233;DHT22;37438;55.674;13.074;2023-07-29T12:22:26;21.50;99.90
20233;DHT22;37438;55.674;13.074;2023-07-29T12:25:30;21.40;99.90
20233;DHT22;37438;55.674;13.074;2023-07-29T12:28:34;21.20;99.90
20233;DHT22;37438;55.674;13.074;2023-07-29T12:31:39;21.30;99.90
20233;DHT22;37438;55.674;13.074;2023-07-29T12:34:43;21.40;99.90
20233;DHT22;37438;55.674;13.074;2023-07-29T12:37:57;21.30;99.90
20233;DHT22;37438;55.674;13.074;2023-07-29T12:41:01;21.30;99.90
20233;DHT22;37438;55.674;13.074;2023-07-29T12:44:06;21.30;99.90
20233;DHT22;37438;55.674;13.074;2023-07-29T12:47:10;21.40;99.90
20233;DHT22;37438;55.674;13.074;2023-07-29T12:50:15;21.30;99.90
20233;DHT22;37438;55.674;13.074;2023-07-29T12:53:20;21.20;99.90
20233;DHT22;37438;55.674;13.074;2023-07-29T12:56:24;21.30;99.90
20233;DHT22;37438;55.674;13.074;2023-07-29T12:59:28;20.90;99.90
20233;DHT22;37438;55.674;13.074;2023-07-29T13:02:32;20.90;99.90
20233;DHT22;37438;55.674;13.074;2023-07-29T13:05:37;20.90;99.90
20233;DHT22;37438;55.674;13.074;2023-07-29T13:08:41;20.60;99.90
20233;DHT22;37438;55.674;13.074;2023-07-29T13:11:46;20.60;99.90
20233;DHT22;37438;55.674;13.074;2023-07-29T13:14:50;20.70;99.90
20233;DHT22;37438;55.674;13.074;2023-07-29T13:17:54;21.00;99.90
20233;DHT22;37438;55.674;13.074;2023-07-29T13:20:59;21.60;99.90
20233;DHT22;37438;55.674;13.074;2023-07-29T13:24:04;22.20;99.90
20233;DHT22;37438;55.674;13.074;2023-07-29T13:27:08;22.40;99.90
20233;DHT22;37438;55.674;13.074;2023-07-29T13:30:12;21.80;99.90
20233;DHT22;37438;55.674;13.074;2023-07-29T13:33:16;22.00;99.90
20233;DHT22;37438;55.674;13.074;2023-07-29T13:36:21;22.10;99.90
20233;DHT22;37438;55.674;13.074;2023-07-29T13:39:25;22.30;99.90
20233;DHT22;37438;55.674;13.074;2023-07-29T13:42:29;22.30;99.90
20233;DHT22;37438;55.674;13.074;2023-07-29T13:45:34;22.50;99.90
20233;DHT22;37438;55.674;13.074;2023-07-29T13:48:38;22.70;99.90
20233;DHT22;37438;55.674;13.074;2023-07-29T13:51:42;23.80;99.90
20233;DHT22;37438;55.674;13.074;2023-07-29T13:54:47;23.50;99.90
20233;DHT22;37438;55.674;13.074;2023-07-29T13:57:52;22.90;99.90
20233;DHT22;37438;55.674;13.074;2023-07-29T14:00:57;23.10;99.90
20233;DHT22;37438;55.674;13.074;2023-07-29T14:04:03;23.60;99.90
20233;DHT22;37438;55.674;13.074;2023-07-29T14:07:07;23.80;99.90
20233;DHT22;37438;55.674;13.074;2023-07-29T14:10:12;23.30;99.90
20233;DHT22;37438;55.674;13.074;2023-07-29T14:13:16;22.80;99.90
20233;DHT22;37438;55.674;13.074;2023-07-29T14:16:20;23.40;99.90
20233;DHT22;37438;55.674;13.074;2023-07-29T14:19:24;23.20;99.90
20233;DHT22;37438;55.674;13.074;2023-07-29T14:22:29;23.30;99.90
20233;DHT22;37438;55.674;13.074;2023-07-29T14:25:33;24.20;99.90
20233;DHT22;37438;55.674;13.074;2023-07-29T14:28:38;25.00;99.90
20233;DHT22;37438;55.674;13.074;2023-07-29T14:31:42;25.00;99.90
20233;DHT22;37438;55.674;13.074;2023-07-29T14:34:47;25.10;99.90
20233;DHT22;37438;55.674;13.074;2023-07-29T14:37:53;24.40;99.90
20233;DHT22;37438;55.674;13.074;2023-07-29T14:40:57;24.20;99.90
20233;DHT22;37438;55.674;13.074;2023-07-29T14:44:02;24.10;99.90
20233;DHT22;37438;55.674;13.074;2023-07-29T14:47:07;23.80;99.90
20233;DHT22;37438;55.674;13.074;2023-07-29T14:50:11;23.90;99.90
20233;DHT22;37438;55.674;13.074;2023-07-29T14:53:16;24.20;99.90
20233;DHT22;37438;55.674;13.074;2023-07-29T14:56:20;24.10;99.90
20233;DHT22;37438;55.674;13.074;2023-07-29T14:59:27;23.60;99.90
20233;DHT22;37438;55.674;13.074;2023-07-29T15:02:31;23.30;99.90
20233;DHT22;37438;55.674;13.074;2023-07-29T15:05:36;23.30;99.90
20233;DHT22;37438;55.674;13.074;2023-07-29T15:08:40;23.60;99.90
20233;DHT22;37438;55.674;13.074;2023-07-29T15:11:44;23.70;99.90
20233;DHT22;37438;55.674;13.074;2023-07-29T15:14:49;23.40;99.90
20233;DHT22;37438;55.674;13.074;2023-07-29T15:17:53;23.20;99.90
20233;DHT22;37438;55.674;13.074;2023-07-29T15:20:58;23.20;99.90
20233;DHT22;37438;55.674;13.074;2023-07-29T15:24:04;22.80;99.90
20233;DHT22;37438;55.674;13.074;2023-07-29T15:27:09;22.70;99.90
20233;DHT22;37438;55.674;13.074;2023-07-29T15:30:13;22.70;99.90
20233;DHT22;37438;55.674;13.074;2023-07-29T15:33:18;22.40;99.90
20233;DHT22;37438;55.674;13.074;2023-07-29T15:36:22;22.50;99.90
20233;DHT22;37438;55.674;13.074;2023-07-29T15:39:26;22.50;99.90
20233;DHT22;37438;55.674;13.074;2023-07-29T15:42:31;22.50;99.90
20233;DHT22;37438;55.674;13.074;2023-07-29T15:45:36;22.90;99.90
20233;DHT22;37438;55.674;13.074;2023-07-29T15:48:40;22.80;99.90
20233;DHT22;37438;55.674;13.074;2023-07-29T15:51:45;22.80;99.90
20233;DHT22;37438;55.674;13.074;2023-07-29T15:54:49;22.70;99.90
20233;DHT22;37438;55.674;13.074;2023-07-29T15:57:56;22.80;99.90
20233;DHT22;37438;55.674;13.074;2023-07-29T16:01:00;22.90;99.90
20233;DHT22;37438;55.674;13.074;2023-07-29T16:04:05;22.80;99.90
20233;DHT22;37438;55.674;13.074;2023-07-29T16:07:09;22.70;99.90
20233;DHT22;37438;55.674;13.074;2023-07-29T16:10:13;22.60;99.90
20233;DHT22;37438;55.674;13.074;2023-07-29T16:13:18;22.60;99.90
20233;DHT22;37438;55.674;13.074;2023-07-29T16:16:23;23.10;99.90
20233;DHT22;37438;55.674;13.074;2023-07-29T16:19:28;23.10;99.90
20233;DHT22;37438;55.674;13.074;2023-07-29T16:22:33;23.50;99.90
20233;DHT22;37438;55.674;13.074;2023-07-29T16:25:37;24.80;99.90
20233;DHT22;37438;55.674;13.074;2023-07-29T16:28:41;23.50;99.90
20233;DHT22;37438;55.674;13.074;2023-07-29T16:31:47;23.10;99.90
20233;DHT22;37438;55.674;13.074;2023-07-29T16:34:56;22.90;99.90
20233;DHT22;37438;55.674;13.074;2023-07-29T16:38:00;22.70;99.90
20233;DHT22;37438;55.674;13.074;2023-07-29T16:41:04;22.70;99.90
20233;DHT22;37438;55.674;13.074;2023-07-29T16:44:22;22.50;99.90
20233;DHT22;37438;55.674;13.074;2023-07-29T16:47:26;22.70;99.90
20233;DHT22;37438;55.674;13.074;2023-07-29T16:50:31;23.10;99.90
20233;DHT22;37438;55.674;13.074;2023-07-29T16:53:35;23.00;99.90
20233;DHT22;37438;55.674;13.074;2023-07-29T16:56:39;23.40;99.90
20233;DHT22;37438;55.674;13.074;2023-07-29T16:59:43;23.90;99.90
20233;DHT22;37438;55.674;13.074;2023-07-29T17:02:48;23.20;99.90
20233;DHT22;37438;55.674;13.074;2023-07-29T17:05:52;22.80;99.90
20233;DHT22;37438;55.674;13.074;2023-07-29T17:08:59;22.60;99.90
20233;DHT22;37438;55.674;13.074;2023-07-29T17:12:04;22.80;99.90
20233;DHT22;37438;55.674;13.074;2023-07-29T17:15:08;22.60;99.90
20233;DHT22;37438;55.674;13.074;2023-07-29T17:18:13;22.40;99.90
20233;DHT22;37438;55.674;13.074;2023-07-29T17:21:17;22.40;99.90
20233;DHT22;37438;55.674;13.074;2023-07-29T17:24:21;22.50;99.90
20233;DHT22;37438;55.674;13.074;2023-07-29T17:27:26;22.20;99.90
20233;DHT22;37438;55.674;13.074;2023-07-29T17:30:31;22.00;99.90
20233;DHT22;37438;55.674;13.074;2023-07-29T17:33:35;22.20;99.90
20233;DHT22;37438;55.674;13.074;2023-07-29T17:36:39;22.10;99.90
20233;DHT22;37438;55.674;13.074;2023-07-29T17:39:43;21.90;99.90
20233;DHT22;37438;55.674;13.074;2023-07-29T17:42:48;21.90;99.90
20233;DHT22;37438;55.674;13.074;2023-07-29T17:45:52;21.90;99.90
20233;DHT22;37438;55.674;13.074;2023-07-29T17:48:56;21.80;99.90
20233;DHT22;37438;55.674;13.074;2023-07-29T17:52:01;21.80;99.90
20233;DHT22;37438;55.674;13.074;2023-07-29T17:55:05;21.60;99.90
20233;DHT22;37438;55.674;13.074;2023-07-29T17:58:10;21.40;99.90
20233;DHT22;37438;55.674;13.074;2023-07-29T18:01:16;21.40;99.90
20233;DHT22;37438;55.674;13.074;2023-07-29T18:04:21;21.50;99.90
20233;DHT22;37438;55.674;13.074;2023-07-29T18:07:25;21.50;99.90
20233;DHT22;37438;55.674;13.074;2023-07-29T18:10:29;21.40;99.90
20233;DHT22;37438;55.674;13.074;2023-07-29T18:13:34;21.40;99.90
20233;DHT22;37438;55.674;13.074;2023-07-29T18:16:39;21.30;99.90
20233;DHT22;37438;55.674;13.074;2023-07-29T18:19:45;21.20;99.90
20233;DHT22;37438;55.674;13.074;2023-07-29T18:22:49;21.10;99.90
20233;DHT22;37438;55.674;13.074;2023-07-29T18:25:54;21.20;99.90
20233;DHT22;37438;55.674;13.074;2023-07-29T18:29:01;21.10;99.90
20233;DHT22;37438;55.674;13.074;2023-07-29T18:32:05;21.10;99.90
20233;DHT22;37438;55.674;13.074;2023-07-29T18:35:09;21.10;99.90
20233;DHT22;37438;55.674;13.074;2023-07-29T18:38:21;21.00;99.90
20233;DHT22;37438;55.674;13.074;2023-07-29T18:41:25;21.00;99.90
20233;DHT22;37438;55.674;13.074;2023-07-29T18:44:31;21.00;99.90
20233;DHT22;37438;55.674;13.074;2023-07-29T18:47:35;20.90;99.90
20233;DHT22;37438;55.674;13.074;2023-07-29T18:50:40;20.90;99.90
20233;DHT22;37438;55.674;13.074;2023-07-29T18:53:45;20.80;99.90
20233;DHT22;37438;55.674;13.074;2023-07-29T18:56:50;20.70;99.90
20233;DHT22;37438;55.674;13.074;2023-07-29T18:59:55;20.70;99.90
20233;DHT22;37438;55.674;13.074;2023-07-29T19:03:00;20.70;99.90
20233;DHT22;37438;55.674;13.074;2023-07-29T19:06:05;20.60;99.90
20233;DHT22;37438;55.674;13.074;2023-07-29T19:09:09;20.50;99.90
20233;DHT22;37438;55.674;13.074;2023-07-29T19:12:14;20.50;99.90
20233;DHT22;37438;55.674;13.074;2023-07-29T19:15:18;20.50;99.90
20233;DHT22;37438;55.674;13.074;2023-07-29T19:18:22;20.40;99.90
20233;DHT22;37438;55.674;13.074;2023-07-29T19:21:26;20.30;99.90